Gillett, Arkansas
Current Conditions -  °F | °C
As of 7:53 PM on Friday 19 Dec 2014 (Local Time) from KPBF Reporting Station
Overcast Overcast  
Wind Chill: 37°   Ceiling: 4800
Heat Index: 42°   Visibility: 10mi
Dew Point: 37°   Wind: 9mph
Humidity: 82%   Direction: 20°NNE
Pressure: 30.24"   Gusts: NA
Location:  34.12°N, 91.38°W
Report Text: KPBF 200153Z AUTO 02008KT 10SM FEW012 OVC048 06/03 A3024 RMK AO2 SLP239 T00560028
Loading
Personal Weather Stations






























Interactive Weather Map New forecast layout! Learn more

10-Day Weather Forecast

Advertisements
Track Severe Weather on mobile